Time;durP1;ratioP1;P1;durP2;ratioP2;P2;SDS_P1;SDS_P2;PMS_P1;PMS_P2;Temp;Humidity;BMP_temperature;BMP_pressure;BME280_temperature;BME280_humidity;BME280_pressure;Samples;Min_cycle;Max_cycle;Signal;HPM_P1;HPM_P2
2020/12/25 00:00:20;;;;;;;119.32;19.55;;;;;;;3.70;85.17;100446.88;5073099;28;20029;-70
2020/12/25 00:02:45;;;;;;;78.53;16.35;;;;;;;3.42;86.25;100445.09;5073358;28;20028;-68
2020/12/25 00:05:10;;;;;;;117.93;19.27;;;;;;;3.49;86.06;100448.91;5071283;28;20036;-69
2020/12/25 00:07:36;;;;;;;135.88;19.17;;;;;;;3.60;86.50;100442.88;5073550;28;20031;-71
2020/12/25 00:10:03;;;;;;;65.70;17.75;;;;;;;3.62;86.31;100435.31;5073332;28;20071;-72
2020/12/25 00:12:28;;;;;;;137.48;17.35;;;;;;;3.68;85.42;100440.81;5073241;28;20017;-71
2020/12/25 00:14:54;;;;;;;144.00;18.98;;;;;;;3.79;85.59;100452.59;5072881;28;20487;-68
2020/12/25 00:17:19;;;;;;;115.18;18.10;;;;;;;3.66;85.56;100458.53;5073210;28;20025;-68
2020/12/25 00:19:45;;;;;;;102.28;22.35;;;;;;;3.43;86.46;100464.72;5073029;28;20039;-68
2020/12/25 00:22:10;;;;;;;139.75;23.05;;;;;;;3.43;86.23;100457.06;5073184;28;20461;-67
2020/12/25 00:24:35;;;;;;;111.32;21.90;;;;;;;3.48;86.15;100455.72;5072864;28;20061;-71
2020/12/25 00:27:02;;;;;;;105.07;21.23;;;;;;;3.46;85.73;100454.72;5072956;28;20541;-70
2020/12/25 00:29:28;;;;;;;96.97;19.73;;;;;;;3.52;85.86;100462.78;5072387;28;20135;-71
2020/12/25 00:31:53;;;;;;;88.38;19.55;;;;;;;3.55;85.90;100457.88;5072793;28;20558;-72
2020/12/25 00:34:18;;;;;;;103.43;20.42;;;;;;;3.53;85.85;100443.25;5071692;28;20498;-72
2020/12/25 00:36:46;;;;;;;105.15;20.67;;;;;;;3.61;85.71;100462.47;5072512;28;20024;-71
2020/12/25 00:39:17;;;;;;;99.20;21.85;;;;;;;3.64;85.32;100457.59;5072461;28;20483;-71
2020/12/25 00:41:44;;;;;;;106.03;21.10;;;;;;;3.66;85.65;100458.53;5063174;28;20373;-72
2020/12/25 00:44:10;;;;;;;84.97;21.13;;;;;;;3.68;85.51;100453.56;5052148;28;20399;-69
2020/12/25 00:46:37;;;;;;;110.07;21.27;;;;;;;3.70;85.66;100457.97;5052453;28;20025;-72
2020/12/25 00:49:03;;;;;;;104.55;21.30;;;;;;;3.75;85.77;100454.84;5066775;28;20028;-72
2020/12/25 00:51:28;;;;;;;103.15;21.85;;;;;;;3.76;85.78;100451.50;5066059;28;20175;-69
2020/12/25 00:53:54;;;;;;;55.80;23.17;;;;;;;3.83;85.50;100454.53;5053522;28;20037;-73
2020/12/25 00:56:19;;;;;;;68.88;23.60;;;;;;;3.88;85.44;100449.72;5070588;28;20399;-73
2020/12/25 00:58:45;;;;;;;66.32;18.13;;;;;;;3.80;84.88;100443.22;5072446;28;20086;-72
2020/12/25 01:01:12;;;;;;;57.38;18.05;;;;;;;3.79;85.29;100433.81;5072071;28;20104;-72
2020/12/25 01:03:40;;;;;;;86.95;17.45;;;;;;;3.82;84.70;100446.78;5072301;28;20436;-73
2020/12/25 01:06:13;;;;;;;70.82;18.05;;;;;;;3.79;84.73;100437.25;5069870;28;20153;-73
2020/12/25 01:08:39;;;;;;;54.22;15.50;;;;;;;3.75;84.81;100431.84;5071501;28;20021;-69
2020/12/25 01:11:05;;;;;;;89.78;18.02;;;;;;;3.69;84.76;100430.69;5072159;28;20193;-69
2020/12/25 01:13:32;;;;;;;44.83;16.10;;;;;;;3.46;84.83;100402.78;5071678;28;20031;-71
2020/12/25 01:16:05;;;;;;;45.08;14.70;;;;;;;3.60;84.96;100434.31;5072196;28;20024;-71
2020/12/25 01:18:30;;;;;;;78.78;16.98;;;;;;;3.52;85.61;100431.28;5071890;28;20020;-69
2020/12/25 01:20:56;;;;;;;62.50;16.55;;;;;;;3.51;85.88;100429.50;5072088;28;20095;-70
2020/12/25 01:23:21;;;;;;;67.38;16.15;;;;;;;3.39;85.46;100427.06;5071815;28;20048;-70
2020/12/25 01:25:47;;;;;;;86.57;18.08;;;;;;;3.29;86.52;100425.56;5071923;28;20020;-70
2020/12/25 01:28:12;;;;;;;131.60;18.77;;;;;;;3.33;86.84;100432.63;5071491;28;20028;-69
2020/12/25 01:30:38;;;;;;;65.77;17.93;;;;;;;3.33;86.81;100424.97;5062313;28;20024;-68
2020/12/25 01:33:03;;;;;;;50.58;15.95;;;;;;;3.42;86.17;100426.38;5067988;28;20028;-67
2020/12/25 01:35:28;;;;;;;58.63;16.97;;;;;;;3.25;86.15;100426.13;5067333;28;20043;-71
2020/12/25 01:37:54;;;;;;;54.27;18.90;;;;;;;2.97;86.66;100393.72;5062284;28;20569;-69
2020/12/25 01:40:19;;;;;;;73.93;19.80;;;;;;;3.14;87.04;100429.63;5052228;28;20501;-68
2020/12/25 01:42:45;;;;;;;69.13;18.40;;;;;;;3.16;87.73;100418.75;5052836;28;20028;-70
2020/12/25 01:45:10;;;;;;;54.27;16.10;;;;;;;3.15;87.50;100421.22;5052259;28;20024;-71
2020/12/25 01:47:36;;;;;;;70.13;17.47;;;;;;;2.90;88.54;100427.22;5060594;28;20021;-69
2020/12/25 01:50:03;;;;;;;87.93;17.63;;;;;;;2.97;88.21;100426.88;5063239;28;20094;-68
2020/12/25 01:52:29;;;;;;;52.73;17.90;;;;;;;2.93;88.11;100422.34;5051905;28;20036;-68
2020/12/25 01:54:55;;;;;;;56.97;16.33;;;;;;;2.95;87.95;100425.88;5050527;28;20033;-67
2020/12/25 01:57:22;;;;;;;86.23;18.60;;;;;;;2.89;88.44;100405.97;5052040;28;20419;-70
2020/12/25 01:59:49;;;;;;;52.57;16.83;;;;;;;3.04;87.97;100413.75;5052486;28;20021;-68
2020/12/25 02:02:16;;;;;;;53.47;17.70;;;;;;;2.89;87.90;100379.56;5052020;28;20037;-69
2020/12/25 02:04:42;;;;;;;122.37;19.90;;;;;;;2.86;87.26;100375.13;5061249;28;20043;-71
2020/12/25 02:07:07;;;;;;;132.53;20.53;;;;;;;3.15;87.21;100409.31;5063862;28;20029;-70
2020/12/25 02:09:33;;;;;;;34.30;17.53;;;;;;;3.16;87.08;100400.03;5059503;28;20024;-69
2020/12/25 02:11:58;;;;;;;55.00;17.70;;;;;;;3.10;86.69;100399.63;5064709;28;20032;-70
2020/12/25 02:14:24;;;;;;;41.33;16.97;;;;;;;3.03;86.64;100406.88;5064914;28;20024;-69
2020/12/25 02:16:49;;;;;;;69.67;19.57;;;;;;;2.91;86.70;100403.50;5054711;28;20033;-73
2020/12/25 02:19:15;;;;;;;40.67;15.80;;;;;;;2.35;87.02;100304.63;5051875;28;20388;-71
2020/12/25 02:21:41;;;;;;;45.90;17.53;;;;;;;2.72;87.36;100379.31;5051634;28;20510;-74
2020/12/25 02:24:08;;;;;;;39.33;16.43;;;;;;;2.75;87.30;100376.09;5067572;28;20053;-73
2020/12/25 02:26:34;;;;;;;81.40;19.80;;;;;;;2.70;87.94;100380.88;5070828;28;20032;-73
2020/12/25 02:29:00;;;;;;;102.67;22.50;;;;;;;2.88;88.58;100398.22;5073379;28;20076;-68
2020/12/25 02:31:25;;;;;;;37.03;17.23;;;;;;;2.79;87.58;100387.38;5070500;28;20637;-69
2020/12/25 02:33:50;;;;;;;52.30;19.87;;;;;;;2.71;88.72;100377.56;5071598;28;20048;-71
2020/12/25 02:36:16;;;;;;;52.90;18.07;;;;;;;2.70;88.90;100373.22;5078425;28;20503;-70
2020/12/25 02:38:41;;;;;;;51.67;18.53;;;;;;;2.65;89.10;100374.59;5081482;28;20056;-69
2020/12/25 02:41:07;;;;;;;51.17;18.37;;;;;;;2.50;89.68;100383.75;5074518;28;20035;-68
2020/12/25 02:43:32;;;;;;;71.10;20.07;;;;;;;2.49;90.22;100402.38;5070130;28;20123;-70
2020/12/25 02:45:58;;;;;;;84.83;20.80;;;;;;;2.41;90.29;100382.34;5071898;28;20036;-71
2020/12/25 02:48:23;;;;;;;65.67;19.33;;;;;;;2.49;90.51;100392.19;5069555;28;20039;-68
2020/12/25 02:50:48;;;;;;;68.90;24.50;;;;;;;2.57;90.90;100401.25;5069467;28;20477;-70
2020/12/25 02:53:14;;;;;;;103.50;22.57;;;;;;;2.70;90.74;100406.38;5069031;28;20040;-71
2020/12/25 02:55:39;;;;;;;118.13;22.33;;;;;;;2.87;90.04;100409.19;5054943;28;20040;-71
2020/12/25 02:58:05;;;;;;;142.07;22.80;;;;;;;2.86;89.22;100407.41;5050700;28;20028;-69
2020/12/25 03:00:30;;;;;;;107.23;20.53;;;;;;;2.70;88.89;100363.03;5052738;28;20033;-69
2020/12/25 03:02:56;;;;;;;44.30;17.63;;;;;;;2.96;88.51;100389.38;5056111;28;20028;-70
2020/12/25 03:05:21;;;;;;;56.40;20.13;;;;;;;2.86;88.90;100387.03;5068166;28;20089;-76
2020/12/25 03:07:46;;;;;;;102.10;20.23;;;;;;;2.84;89.05;100396.22;5067082;28;20079;-72
2020/12/25 03:10:12;;;;;;;130.27;22.67;;;;;;;2.94;89.40;100385.88;5066675;28;20036;-75
2020/12/25 03:12:37;;;;;;;147.43;22.87;;;;;;;3.06;88.94;100390.88;5048609;28;20040;-74
2020/12/25 03:15:04;;;;;;;41.77;18.27;;;;;;;3.10;88.27;100395.38;5049069;28;20041;-72
2020/12/25 03:17:29;;;;;;;94.27;19.50;;;;;;;3.04;87.83;100415.38;5048694;28;20040;-72
2020/12/25 03:19:55;;;;;;;76.05;20.55;;;;;;;3.09;87.68;100416.59;5048119;28;20029;-69
2020/12/25 03:22:20;;;;;;;67.73;20.30;;;;;;;3.13;87.81;100413.47;5047755;28;20041;-71
2020/12/25 03:24:45;;;;;;;81.53;21.47;;;;;;;3.18;87.92;100409.53;5049235;28;20455;-73
2020/12/25 03:27:11;;;;;;;130.52;22.65;;;;;;;3.17;87.41;100412.88;5050026;28;20442;-69
2020/12/25 03:29:36;;;;;;;139.95;22.25;;;;;;;3.22;87.00;100401.28;5048726;28;20098;-73
2020/12/25 03:32:02;;;;;;;81.53;20.47;;;;;;;3.34;87.01;100415.63;5051359;28;20040;-73
2020/12/25 03:34:28;;;;;;;90.67;18.63;;;;;;;3.39;86.24;100407.50;5052395;28;20068;-72
2020/12/25 03:36:55;;;;;;;95.20;19.97;;;;;;;3.37;86.03;100401.41;5049886;28;20033;-70
2020/12/25 03:39:20;;;;;;;86.53;20.57;;;;;;;3.47;85.96;100396.91;5066586;28;20049;-71
2020/12/25 03:41:46;;;;;;;33.75;16.90;;;;;;;3.33;85.83;100384.13;5063980;28;20123;-70
2020/12/25 03:44:11;;;;;;;66.13;18.70;;;;;;;3.14;86.14;100361.66;5073720;28;20107;-70
2020/12/25 03:46:37;;;;;;;103.38;20.73;;;;;;;3.40;86.23;100396.53;5073590;28;20024;-72
2020/12/25 03:49:04;;;;;;;125.03;20.65;;;;;;;3.46;85.62;100395.13;5073494;28;20040;-70
2020/12/25 03:51:30;;;;;;;94.00;19.95;;;;;;;3.40;86.10;100396.53;5073602;28;20426;-67
2020/12/25 03:53:55;;;;;;;70.85;18.35;;;;;;;3.14;86.87;100410.13;5073247;28;20033;-69
2020/12/25 03:56:21;;;;;;;64.70;18.10;;;;;;;2.96;87.76;100401.25;5073124;28;20021;-70
2020/12/25 03:58:46;;;;;;;103.23;20.97;;;;;;;2.77;88.79;100409.34;5073499;28;20103;-73
2020/12/25 04:01:12;;;;;;;98.83;20.50;;;;;;;2.43;89.59;100380.81;5073530;28;20063;-70
2020/12/25 04:03:37;;;;;;;99.57;21.63;;;;;;;2.60;89.84;100414.19;5073169;28;20089;-71
2020/12/25 04:06:03;;;;;;;67.23;21.53;;;;;;;2.74;90.25;100416.00;5073158;28;20024;-71
2020/12/25 04:08:28;;;;;;;78.90;23.10;;;;;;;2.77;89.61;100384.75;5072812;28;20025;-67
2020/12/25 04:10:54;;;;;;;98.43;23.00;;;;;;;2.53;90.18;100402.69;5073227;28;20036;-67
2020/12/25 04:13:21;;;;;;;80.27;21.23;;;;;;;2.33;91.16;100411.53;5073222;28;20031;-70
2020/12/25 04:15:47;;;;;;;76.97;22.40;;;;;;;2.43;90.94;100395.22;5072944;28;20533;-66
2020/12/25 04:18:12;;;;;;;104.73;24.60;;;;;;;2.42;90.84;100394.31;5072924;28;20032;-67
2020/12/25 04:20:37;;;;;;;97.20;22.23;;;;;;;2.64;90.76;100399.97;5072892;28;20024;-73
2020/12/25 04:23:03;;;;;;;93.83;23.40;;;;;;;2.62;90.20;100397.34;5072658;28;20060;-69
2020/12/25 04:25:28;;;;;;;91.87;24.57;;;;;;;2.35;90.37;100371.75;5073113;28;20054;-66
2020/12/25 04:27:54;;;;;;;78.63;22.70;;;;;;;2.47;90.50;100397.19;5073275;28;20029;-73
2020/12/25 04:30:19;;;;;;;96.67;23.60;;;;;;;2.36;90.68;100395.56;5072521;28;20035;-69
2020/12/25 04:32:45;;;;;;;81.13;23.33;;;;;;;2.23;91.06;100410.00;5073143;28;20107;-69
2020/12/25 04:35:10;;;;;;;111.37;24.13;;;;;;;2.29;91.11;100409.53;5072525;28;20036;-70
2020/12/25 04:37:35;;;;;;;97.97;25.53;;;;;;;2.33;90.85;100395.34;5072963;28;20380;-67
2020/12/25 04:40:03;;;;;;;72.17;24.40;;;;;;;2.41;90.43;100391.66;5072555;28;20086;-70
2020/12/25 04:42:29;;;;;;;107.90;28.33;;;;;;;2.56;89.94;100394.38;5056202;28;20082;-70
2020/12/25 04:44:55;;;;;;;117.33;38.60;;;;;;;2.49;90.16;100376.91;5052680;28;20120;-67
2020/12/25 04:47:20;;;;;;;136.93;34.97;;;;;;;2.69;89.82;100396.97;5052170;28;20479;-68
2020/12/25 04:49:46;;;;;;;64.30;25.20;;;;;;;2.55;89.08;100351.81;5052508;28;20029;-71
2020/12/25 04:52:11;;;;;;;111.40;29.30;;;;;;;2.55;89.04;100350.16;5052564;28;20033;-71
2020/12/25 04:54:36;;;;;;;84.53;22.23;;;;;;;2.91;88.40;100404.38;5052265;28;20476;-70
2020/12/25 04:57:02;;;;;;;94.13;23.63;;;;;;;2.94;87.95;100403.72;5061233;28;20105;-71
2020/12/25 04:59:29;;;;;;;99.03;22.97;;;;;;;2.92;87.52;100392.53;5056326;28;20116;-70
2020/12/25 05:01:56;;;;;;;76.40;23.23;;;;;;;2.81;87.76;100401.13;5064974;28;20032;-70
2020/12/25 05:04:23;;;;;;;86.63;21.80;;;;;;;2.84;87.65;100404.78;5071274;28;20063;-70
2020/12/25 05:06:50;;;;;;;72.67;22.27;;;;;;;2.53;88.57;100406.91;5057592;28;20075;-67
2020/12/25 05:09:25;;;;;;;82.83;22.90;;;;;;;2.34;89.13;100377.59;5063458;28;20419;-67
2020/12/25 05:11:55;;;;;;;98.97;24.93;;;;;;;2.50;88.92;100406.69;5064344;28;20045;-68
2020/12/25 05:14:28;;;;;;;107.30;24.63;;;;;;;2.50;88.40;100409.25;5058283;28;20088;-68
2020/12/25 05:16:56;;;;;;;98.17;26.57;;;;;;;2.52;88.28;100400.94;5063492;28;20032;-70
2020/12/25 05:19:30;;;;;;;104.23;27.23;;;;;;;2.58;88.06;100403.03;5071246;28;20032;-69
2020/12/25 05:21:57;;;;;;;89.00;25.43;;;;;;;2.21;87.92;100335.16;5071335;28;20474;-69
2020/12/25 05:24:23;;;;;;;101.33;23.93;;;;;;;2.70;87.17;100414.00;5071255;28;20053;-68
2020/12/25 05:26:56;;;;;;;77.23;23.97;;;;;;;2.37;87.25;100379.50;5071173;28;20047;-67
2020/12/25 05:29:28;;;;;;;70.93;23.00;;;;;;;2.46;87.73;100413.25;5070705;28;20029;-69
2020/12/25 05:31:54;;;;;;;67.27;22.40;;;;;;;2.47;87.53;100399.72;5071079;28;20430;-66
2020/12/25 05:34:21;;;;;;;72.17;24.23;;;;;;;2.45;87.40;100403.84;5071564;28;20036;-69
2020/12/25 05:36:50;;;;;;;90.63;25.50;;;;;;;2.48;87.59;100406.59;5071217;28;20103;-69
2020/12/25 05:39:29;;;;;;;97.88;26.80;;;;;;;2.57;87.06;100404.66;5071121;28;20016;-65
2020/12/25 05:42:15;;;;;;;101.43;26.95;;;;;;;2.41;87.56;100395.09;5074505;28;20406;-70
2020/12/25 05:44:45;;;;;;;103.10;28.13;;;;;;;2.45;87.83;100401.28;5069200;28;20044;-67
2020/12/25 05:47:13;;;;;;;120.53;29.97;;;;;;;2.36;88.27;100395.56;5069299;28;20032;-69
2020/12/25 05:49:38;;;;;;;83.00;27.57;;;;;;;2.48;88.19;100398.97;5069189;28;20024;-70
2020/12/25 05:52:04;;;;;;;178.37;73.37;;;;;;;2.42;88.16;100406.19;5069329;28;20021;-69
2020/12/25 05:54:31;;;;;;;154.77;60.17;;;;;;;2.16;88.59;100384.00;5071389;28;20032;-69
2020/12/25 05:56:58;;;;;;;69.27;29.33;;;;;;;2.21;88.94;100425.97;5080158;28;20028;-66
2020/12/25 05:59:31;;;;;;;147.47;43.53;;;;;;;1.95;89.24;100389.38;5068740;28;20025;-71
2020/12/25 06:02:05;;;;;;;126.57;37.37;;;;;;;2.24;88.84;100426.16;5069137;28;20487;-69
2020/12/25 06:04:33;;;;;;;126.70;33.60;;;;;;;2.35;89.23;100430.34;5068667;28;20047;-69
2020/12/25 06:06:59;;;;;;;127.23;32.20;;;;;;;2.24;88.64;100398.16;5068873;28;20032;-67
2020/12/25 06:09:29;;;;;;;104.97;34.23;;;;;;;2.53;88.03;100425.63;5068876;28;20028;-65
2020/12/25 06:11:55;;;;;;;93.33;32.27;;;;;;;2.36;88.73;100427.00;5085636;28;20031;-66
2020/12/25 06:14:21;;;;;;;133.70;36.73;;;;;;;2.35;88.90;100435.44;5069018;28;20036;-69
2020/12/25 06:17:09;;;;;;;122.77;30.40;;;;;;;2.44;89.13;100432.63;5073166;28;20049;-69
2020/12/25 06:19:45;;;;;;;88.13;27.53;;;;;;;2.24;89.77;100438.91;5080312;28;20063;-65
2020/12/25 06:22:21;;;;;;;75.87;29.87;;;;;;;2.13;90.32;100435.63;5069948;28;20028;-65
2020/12/25 06:24:50;;;;;;;121.47;30.30;;;;;;;2.22;90.87;100438.81;5070885;28;20052;-69
2020/12/25 06:27:15;;;;;;;130.30;32.53;;;;;;;2.33;90.07;100434.47;5066004;28;20052;-67
2020/12/25 06:29:42;;;;;;;111.13;31.17;;;;;;;2.29;89.74;100445.19;5063621;28;20029;-71
2020/12/25 06:32:12;;;;;;;102.47;33.80;;;;;;;2.36;89.58;100462.69;5071229;28;20025;-69
2020/12/25 06:34:48;;;;;;;127.28;35.30;;;;;;;2.39;89.51;100452.72;5071361;28;20067;-67
2020/12/25 06:37:15;;;;;;;137.67;43.43;;;;;;;2.26;89.71;100456.06;5071050;28;20107;-70
2020/12/25 06:39:51;;;;;;;92.03;31.43;;;;;;;2.42;89.70;100447.81;5070869;28;20021;-69
2020/12/25 06:42:30;;;;;;;123.37;28.63;;;;;;;2.56;89.01;100440.25;5056522;28;20056;-69
2020/12/25 06:44:57;;;;;;;92.70;28.92;;;;;;;2.56;88.64;100435.16;5051039;28;20029;-68
2020/12/25 06:47:27;;;;;;;120.37;28.03;;;;;;;2.64;89.20;100446.78;5050879;28;20036;-69
2020/12/25 06:49:53;;;;;;;144.50;56.67;;;;;;;2.69;89.03;100447.97;5050988;28;20063;-69
2020/12/25 06:52:29;;;;;;;102.70;28.33;;;;;;;2.47;88.34;100420.13;5051100;28;20064;-69
2020/12/25 06:54:55;;;;;;;104.23;28.13;;;;;;;2.64;89.04;100449.31;5050426;28;20523;-69
2020/12/25 06:57:28;;;;;;;92.67;30.50;;;;;;;2.68;89.02;100450.38;5050925;28;20056;-72
2020/12/25 06:59:58;;;;;;;133.93;40.27;;;;;;;2.53;89.09;100445.13;5051655;28;20033;-70
2020/12/25 07:02:26;;;;;;;96.18;30.38;;;;;;;2.56;88.59;100456.41;5050642;28;20124;-69
2020/12/25 07:04:59;;;;;;;112.17;28.97;;;;;;;2.57;90.05;100442.91;5054723;28;20037;-69
2020/12/25 07:07:31;;;;;;;104.33;27.70;;;;;;;2.25;89.43;100375.31;5073606;28;20028;-68
2020/12/25 07:10:01;;;;;;;97.03;24.40;;;;;;;2.71;89.09;100430.22;5074426;28;20383;-69
2020/12/25 07:12:28;;;;;;;106.47;26.87;;;;;;;2.66;89.29;100434.13;5074751;28;20028;-69
2020/12/25 07:14:54;;;;;;;154.73;69.13;;;;;;;2.73;89.31;100429.53;5074401;28;20021;-67
2020/12/25 07:17:19;;;;;;;135.43;38.90;;;;;;;2.79;89.00;100433.28;5074340;28;20023;-66
2020/12/25 07:19:45;;;;;;;101.83;28.90;;;;;;;2.80;88.79;100429.94;5074414;28;20025;-66
2020/12/25 07:22:11;;;;;;;104.57;26.80;;;;;;;2.63;89.08;100396.56;5069983;28;20028;-68
2020/12/25 07:24:40;;;;;;;159.50;70.87;;;;;;;2.91;89.47;100436.66;5068425;28;20084;-65
2020/12/25 07:27:07;;;;;;;89.13;36.20;;;;;;;2.90;88.91;100428.13;5069864;28;20056;-67
2020/12/25 07:29:33;;;;;;;120.40;29.63;;;;;;;2.93;88.79;100437.66;5069495;28;20090;-72
2020/12/25 07:31:58;;;;;;;115.67;45.80;;;;;;;2.85;89.66;100433.69;5068187;28;20544;-72
2020/12/25 07:34:26;;;;;;;127.30;42.23;;;;;;;2.93;90.33;100437.66;5070464;28;20118;-69
2020/12/25 07:36:54;;;;;;;100.67;26.37;;;;;;;2.83;89.59;100440.34;5066744;28;20052;-69
2020/12/25 07:39:25;;;;;;;89.33;32.73;;;;;;;2.81;89.91;100435.16;5070247;28;20031;-66
2020/12/25 07:41:51;;;;;;;106.27;42.67;;;;;;;2.56;90.51;100386.72;5063327;28;20033;-71
2020/12/25 07:44:21;;;;;;;136.77;27.57;;;;;;;2.70;91.44;100433.53;5053876;28;20036;-65
2020/12/25 07:46:46;;;;;;;66.77;29.77;;;;;;;2.82;91.22;100439.47;5053809;28;20028;-66
2020/12/25 07:49:13;;;;;;;102.77;30.70;;;;;;;2.90;90.35;100422.13;5053288;28;20103;-69
2020/12/25 07:51:38;;;;;;;85.77;32.80;;;;;;;2.81;90.08;100416.44;5053996;28;20036;-65
2020/12/25 07:54:04;;;;;;;109.57;37.53;;;;;;;2.82;90.71;100459.00;5053963;28;20029;-69
2020/12/25 07:56:35;;;;;;;88.27;33.23;;;;;;;2.82;91.18;100446.25;5053440;28;20029;-72
2020/12/25 07:59:01;;;;;;;130.10;44.70;;;;;;;2.87;91.27;100453.41;5053577;28;20032;-69
2020/12/25 08:01:29;;;;;;;111.53;31.20;;;;;;;2.92;91.01;100446.06;5052140;28;20021;-68
2020/12/25 08:03:57;;;;;;;146.27;29.87;;;;;;;2.95;91.07;100447.94;5053359;28;20095;-69
2020/12/25 08:06:25;;;;;;;138.13;31.60;;;;;;;3.00;90.76;100450.00;5053400;28;20027;-72
2020/12/25 08:08:57;;;;;;;124.93;29.50;;;;;;;3.06;90.59;100450.41;5053318;28;20408;-69
2020/12/25 08:11:24;;;;;;;112.63;29.23;;;;;;;2.87;91.63;100457.63;5053143;28;20108;-65
2020/12/25 08:13:53;;;;;;;130.43;32.77;;;;;;;2.81;92.21;100452.13;5053314;28;20056;-69
2020/12/25 08:16:18;;;;;;;130.23;34.30;;;;;;;2.81;92.91;100419.84;5052500;28;20031;-69
2020/12/25 08:18:48;;;;;;;132.23;33.53;;;;;;;3.04;92.40;100438.34;5052972;28;20028;-66
2020/12/25 08:21:14;;;;;;;143.52;33.00;;;;;;;2.99;92.29;100444.81;5053521;28;20079;-69
2020/12/25 08:23:39;;;;;;;111.40;34.33;;;;;;;3.08;92.22;100464.16;5052813;28;20443;-69
2020/12/25 08:26:06;;;;;;;143.50;32.37;;;;;;;3.07;91.82;100457.28;5053288;28;20051;-69
2020/12/25 08:28:32;;;;;;;108.70;31.67;;;;;;;3.22;92.05;100452.31;5052869;28;20104;-72
2020/12/25 08:31:12;;;;;;;79.10;30.30;;;;;;;3.30;91.66;100455.41;5052623;28;20049;-69
2020/12/25 08:33:37;;;;;;;108.78;32.38;;;;;;;3.00;91.18;100391.34;5052642;28;20078;-67
2020/12/25 08:36:09;;;;;;;112.33;33.93;;;;;;;3.49;90.46;100451.47;5052741;28;20028;-67
2020/12/25 08:38:41;;;;;;;112.55;33.00;;;;;;;3.45;89.62;100431.66;5052692;28;20039;-69
2020/12/25 08:41:06;;;;;;;147.15;41.83;;;;;;;3.63;89.68;100453.25;5098989;28;20029;-69
2020/12/25 08:43:32;;;;;;;93.95;37.03;;;;;;;3.73;89.63;100455.63;5052363;28;20063;-69
2020/12/25 08:46:03;;;;;;;98.77;37.27;;;;;;;3.82;89.46;100457.00;5052534;28;20057;-68
2020/12/25 08:48:33;;;;;;;118.00;36.60;;;;;;;3.76;89.73;100441.28;5050721;28;20033;-68
2020/12/25 08:51:12;;;;;;;132.90;42.97;;;;;;;3.87;89.42;100458.16;5052436;28;20036;-69
2020/12/25 08:53:39;;;;;;;111.30;41.00;;;;;;;4.00;89.47;100459.81;5052882;28;20025;-66
2020/12/25 08:56:18;;;;;;;127.22;38.25;;;;;;;3.92;89.07;100450.81;5052227;28;20067;-70
2020/12/25 08:59:06;;;;;;;101.00;32.92;;;;;;;3.94;89.02;100452.66;5052569;28;20036;-69
2020/12/25 09:01:38;;;;;;;82.68;33.20;;;;;;;4.03;88.65;100439.59;5050874;28;20017;-73
2020/12/25 09:04:03;;;;;;;91.57;33.00;;;;;;;4.08;88.90;100443.31;5052516;28;20032;-69
2020/12/25 09:06:29;;;;;;;91.35;35.25;;;;;;;4.07;89.34;100449.19;5055416;28;20028;-69
2020/12/25 09:08:56;;;;;;;81.05;34.25;;;;;;;3.94;89.94;100441.56;5072440;28;20047;-69
2020/12/25 09:11:24;;;;;;;117.70;34.35;;;;;;;3.76;90.28;100401.31;5072116;28;20021;-69
2020/12/25 09:13:50;;;;;;;94.95;30.98;;;;;;;3.95;89.86;100438.22;5072200;28;20028;-68
2020/12/25 09:16:15;;;;;;;108.07;40.75;;;;;;;3.58;92.28;100397.56;5071971;28;20448;-68
2020/12/25 09:18:42;;;;;;;88.15;37.80;;;;;;;3.86;92.96;100435.97;5053286;28;20040;-67
2020/12/25 09:21:09;;;;;;;62.47;31.58;;;;;;;3.54;93.21;100393.97;5072203;28;20027;-72
2020/12/25 09:23:35;;;;;;;60.30;26.83;;;;;;;3.79;93.11;100436.34;5071625;28;20053;-66
2020/12/25 09:26:03;;;;;;;50.60;27.65;;;;;;;3.85;93.20;100431.63;5072193;28;20057;-69
2020/12/25 09:28:28;;;;;;;45.17;27.23;;;;;;;3.96;93.46;100424.66;5071117;28;20494;-69
2020/12/25 09:30:54;;;;;;;54.17;23.30;;;;;;;4.07;92.42;100417.69;5069788;28;20045;-69
2020/12/25 09:33:21;;;;;;;43.72;24.17;;;;;;;4.06;92.52;100404.00;5071587;28;20032;-68
2020/12/25 09:35:47;;;;;;;40.25;23.45;;;;;;;4.08;93.22;100411.78;5071982;28;20490;-66
2020/12/25 09:38:12;;;;;;;52.55;32.20;;;;;;;4.23;93.33;100393.97;5072149;28;20029;-69
2020/12/25 09:40:38;;;;;;;51.75;33.22;;;;;;;4.24;93.76;100401.72;5068529;28;20040;-70
2020/12/25 09:43:04;;;;;;;44.08;28.05;;;;;;;4.40;93.71;100394.97;5053575;28;20031;-66
2020/12/25 09:45:29;;;;;;;46.30;28.20;;;;;;;4.48;92.48;100393.75;5061853;28;20039;-68
2020/12/25 09:47:55;;;;;;;142.35;128.70;;;;;;;4.60;92.33;100388.50;5071643;28;20082;-69
2020/12/25 09:50:20;;;;;;;40.03;26.10;;;;;;;4.67;91.83;100394.09;5071855;28;20024;-66
2020/12/25 09:52:45;;;;;;;40.97;26.17;;;;;;;4.67;91.39;100388.06;5071906;28;20028;-65
2020/12/25 09:55:11;;;;;;;50.95;31.23;;;;;;;4.61;91.26;100388.59;5071956;28;20040;-65
2020/12/25 09:57:36;;;;;;;56.47;35.38;;;;;;;4.60;91.29;100376.59;5072085;28;20021;-67
2020/12/25 10:00:09;;;;;;;58.17;37.38;;;;;;;4.66;92.49;100371.84;5071732;28;20024;-70
2020/12/25 10:02:35;;;;;;;57.50;35.35;;;;;;;4.86;92.19;100360.22;5071360;28;20052;-67
2020/12/25 10:05:00;;;;;;;62.40;40.08;;;;;;;4.90;92.36;100350.16;5071716;28;20064;-69
2020/12/25 10:07:27;;;;;;;60.38;33.55;;;;;;;4.85;91.59;100326.91;5070601;28;20028;-71
2020/12/25 10:09:52;;;;;;;57.67;35.75;;;;;;;4.90;91.72;100335.72;5071906;28;20029;-69
2020/12/25 10:12:18;;;;;;;63.35;34.67;;;;;;;4.83;91.19;100310.56;5071663;28;20025;-69
2020/12/25 10:14:43;;;;;;;64.50;36.22;;;;;;;5.09;91.29;100355.53;5071803;28;20115;-67
2020/12/25 10:17:08;;;;;;;65.13;32.80;;;;;;;5.02;91.37;100345.75;5071674;28;20024;-65
2020/12/25 10:19:35;;;;;;;61.28;33.90;;;;;;;5.06;91.09;100354.47;5070577;28;20414;-73
2020/12/25 10:22:01;;;;;;;62.53;31.08;;;;;;;5.12;91.50;100352.28;5071583;28;20136;-69
2020/12/25 10:24:26;;;;;;;62.80;32.70;;;;;;;4.94;91.42;100306.94;5071740;28;20101;-67
2020/12/25 10:26:52;;;;;;;60.85;33.80;;;;;;;5.15;91.50;100337.97;5071579;28;20028;-69
2020/12/25 10:29:17;;;;;;;66.43;33.00;;;;;;;5.17;91.65;100343.19;5071686;28;20483;-69
2020/12/25 10:31:47;;;;;;;64.07;34.10;;;;;;;5.08;91.96;100320.50;5070676;28;20032;-70
2020/12/25 10:34:12;;;;;;;;;;;;;;;5.11;92.22;100330.03;5071886;28;20060;-70
2020/12/25 10:36:37;;;;;;;47.35;24.00;;;;;;;5.08;92.94;100330.75;5071335;28;20419;-66
2020/12/25 10:39:03;;;;;;;44.10;25.80;;;;;;;5.13;92.95;100313.09;5071347;28;20036;-70
2020/12/25 10:41:30;;;;;;;39.25;24.63;;;;;;;5.00;93.29;100270.59;5074700;28;20115;-66
2020/12/25 10:43:56;;;;;;;45.17;26.70;;;;;;;5.32;93.54;100309.88;5075369;28;20029;-68
2020/12/25 10:46:22;;;;;;;48.42;27.90;;;;;;;5.36;93.09;100311.84;5075218;28;20064;-66
2020/12/25 10:48:48;;;;;;;40.45;25.10;;;;;;;5.40;92.95;100307.78;5075378;28;20436;-67
2020/12/25 10:51:13;;;;;;;37.67;24.02;;;;;;;5.23;93.19;100300.00;5075312;28;20479;-68
2020/12/25 10:53:40;;;;;;;37.50;23.35;;;;;;;5.33;93.33;100304.88;5075645;28;20055;-69
2020/12/25 10:56:05;;;;;;;36.28;24.30;;;;;;;5.22;93.38;100298.28;5039817;28;20033;-69
2020/12/25 10:58:30;;;;;;;38.95;25.35;;;;;;;5.22;94.35;100293.16;5075687;28;20082;-69
2020/12/25 11:00:56;;;;;;;37.95;25.42;;;;;;;5.41;94.15;100300.16;5074906;28;20029;-69
2020/12/25 11:03:21;;;;;;;47.63;30.98;;;;;;;5.38;93.75;100297.41;5075062;28;20391;-70
2020/12/25 11:05:48;;;;;;;46.42;30.80;;;;;;;5.44;93.84;100294.31;5075284;28;20035;-67
2020/12/25 11:08:14;;;;;;;44.83;29.88;;;;;;;5.40;93.59;100297.53;5075169;28;20103;-69
2020/12/25 11:10:43;;;;;;;41.58;29.70;;;;;;;5.44;93.59;100290.06;5074767;28;20130;-70
2020/12/25 11:13:08;;;;;;;41.40;26.10;;;;;;;5.56;93.59;100296.66;5075222;28;20036;-70